createdAt,value
2018-05-24T00:01:57.615Z,15.80
2018-05-24T00:04:25.186Z,15.90
2018-05-24T00:06:52.754Z,15.90
2018-05-24T00:09:20.359Z,15.90
2018-05-24T00:11:48.770Z,15.90
2018-05-24T00:14:16.319Z,15.90
2018-05-24T00:16:44.651Z,16.00
2018-05-24T00:19:12.351Z,15.90
2018-05-24T00:21:40.680Z,16.00
2018-05-24T00:24:08.258Z,16.00
2018-05-24T00:26:35.858Z,16.00
2018-05-24T00:29:03.508Z,16.00
2018-05-24T00:31:31.838Z,16.10
2018-05-24T00:33:59.371Z,16.10
2018-05-24T00:36:26.930Z,16.10
2018-05-24T00:38:54.471Z,16.10
2018-05-24T00:49:02.522Z,16.10
2018-05-24T00:51:30.068Z,16.10
2018-05-24T00:53:58.385Z,16.20
2018-05-24T00:56:25.970Z,16.20
2018-05-24T00:58:53.631Z,16.10
2018-05-24T01:01:22.062Z,16.20
2018-05-24T01:03:49.666Z,16.10
2018-05-24T01:06:17.303Z,16.10
2018-05-24T01:13:52.711Z,16.20
2018-05-24T01:16:21.339Z,16.20
2018-05-24T01:18:48.919Z,16.10
2018-05-24T01:21:16.662Z,16.10
2018-05-24T01:23:44.212Z,16.10
2018-05-24T01:26:11.751Z,16.10
2018-05-24T01:28:40.244Z,16.10
2018-05-24T01:31:08.547Z,16.10
2018-05-24T01:33:36.096Z,16.10
2018-05-24T01:36:03.666Z,16.10
2018-05-24T01:38:31.313Z,16.20
2018-05-24T01:40:58.856Z,16.10
2018-05-24T01:43:27.179Z,16.10
2018-05-24T01:45:54.763Z,16.10
2018-05-24T01:48:22.294Z,16.10
2018-05-24T01:50:49.843Z,16.20
2018-05-24T01:53:17.375Z,16.20
2018-05-24T01:55:45.792Z,16.20
2018-05-24T01:58:13.327Z,16.20
2018-05-24T02:00:41.048Z,16.20
2018-05-24T02:03:08.591Z,16.20
2018-05-24T02:05:36.919Z,16.10
2018-05-24T02:08:04.554Z,16.10
2018-05-24T02:10:32.875Z,16.10
2018-05-24T02:13:00.431Z,16.10
2018-05-24T02:15:27.982Z,16.10
2018-05-24T02:17:55.527Z,16.10
2018-05-24T02:20:23.062Z,16.10
2018-05-24T02:22:51.399Z,16.00
2018-05-24T02:25:18.923Z,16.00
2018-05-24T02:27:46.479Z,16.00
2018-05-24T02:30:14.120Z,16.00
2018-05-24T02:32:42.507Z,15.90
2018-05-24T02:35:10.072Z,15.90
2018-05-24T02:37:37.668Z,15.90
2018-05-24T02:40:05.279Z,15.90
2018-05-24T02:42:33.548Z,15.80
2018-05-24T02:45:02.005Z,15.80
2018-05-24T02:47:29.727Z,15.80
2018-05-24T02:49:57.267Z,15.80
2018-05-24T02:52:24.824Z,15.80
2018-05-24T02:54:52.380Z,15.80
2018-05-24T02:57:19.927Z,15.80
2018-05-24T02:59:48.236Z,15.80
2018-05-24T03:02:15.793Z,15.70
2018-05-24T03:04:43.323Z,15.80
2018-05-24T03:07:11.780Z,15.80
2018-05-24T03:09:39.339Z,15.80
2018-05-24T03:12:06.875Z,15.80
2018-05-24T03:14:34.559Z,15.80
2018-05-24T03:17:02.118Z,15.80
2018-05-24T03:19:30.637Z,15.80
2018-05-24T03:21:58.263Z,15.80
2018-05-24T03:24:25.803Z,15.80
2018-05-24T03:26:53.363Z,15.80
2018-05-24T03:29:21.839Z,15.80
2018-05-24T03:31:49.539Z,15.80
2018-05-24T03:34:17.945Z,15.70
2018-05-24T03:36:45.599Z,15.70
2018-05-24T03:39:13.167Z,15.70
2018-05-24T03:41:40.706Z,15.70
2018-05-24T03:44:08.301Z,15.70
2018-05-24T03:46:36.041Z,15.70
2018-05-24T03:49:03.596Z,15.70
2018-05-24T03:51:31.201Z,15.70
2018-05-24T03:53:58.928Z,15.70
2018-05-24T03:56:26.530Z,15.70
2018-05-24T04:02:17.964Z,15.40
2018-05-24T04:04:50.464Z,15.80
2018-05-24T04:07:18.015Z,15.80
2018-05-24T04:09:45.554Z,15.80
2018-05-24T04:12:13.072Z,15.80
2018-05-24T04:14:40.647Z,15.80
2018-05-24T04:17:08.167Z,15.80
2018-05-24T04:19:35.735Z,15.80
2018-05-24T04:22:03.279Z,15.80
2018-05-24T04:24:31.598Z,15.90
2018-05-24T04:26:59.130Z,15.90
2018-05-24T04:29:26.663Z,15.90
2018-05-24T04:31:55.256Z,15.90
2018-05-24T04:34:23.616Z,15.90
2018-05-24T04:36:51.168Z,15.90
2018-05-24T04:39:18.711Z,15.90
2018-05-24T04:41:46.279Z,15.90
2018-05-24T04:44:14.572Z,16.00
2018-05-24T04:46:42.974Z,16.00
2018-05-24T04:49:10.514Z,16.00
2018-05-24T04:51:38.938Z,16.00
2018-05-24T04:54:06.591Z,16.00
2018-05-24T04:56:34.137Z,16.00
2018-05-24T04:59:01.720Z,16.00
2018-05-24T05:01:29.378Z,16.10
2018-05-24T05:03:56.907Z,16.10
2018-05-24T05:06:24.538Z,16.10
2018-05-24T05:08:52.924Z,16.10
2018-05-24T05:11:21.251Z,16.10
2018-05-24T05:13:48.782Z,16.10
2018-05-24T05:16:16.353Z,16.10
2018-05-24T05:18:44.043Z,16.10
2018-05-24T05:21:11.612Z,16.10
2018-05-24T05:23:39.142Z,16.10
2018-05-24T05:26:06.713Z,16.10
2018-05-24T05:28:34.247Z,16.10
2018-05-24T05:31:01.795Z,16.10
2018-05-24T05:33:29.407Z,16.10
2018-05-24T05:35:56.955Z,16.10
2018-05-24T05:38:24.499Z,16.20
2018-05-24T05:40:52.060Z,16.20
2018-05-24T05:43:19.595Z,16.20
2018-05-24T05:45:47.146Z,16.20
2018-05-24T05:48:14.670Z,16.20
2018-05-24T05:50:42.220Z,16.30
2018-05-24T05:53:09.769Z,16.30
2018-05-24T05:55:37.859Z,16.30
2018-05-24T05:58:05.433Z,16.30
2018-05-24T06:00:33.749Z,16.40
2018-05-24T06:03:01.286Z,16.40
2018-05-24T06:05:28.878Z,16.40
2018-05-24T06:07:56.399Z,16.50
2018-05-24T06:10:24.851Z,16.60
2018-05-24T06:12:52.391Z,16.50
2018-05-24T06:15:19.978Z,16.60
2018-05-24T06:17:47.519Z,16.60
2018-05-24T06:20:15.190Z,16.70
2018-05-24T06:22:43.603Z,16.70
2018-05-24T06:25:11.160Z,16.70
2018-05-24T06:27:38.862Z,16.70
2018-05-24T06:30:07.334Z,16.80
2018-05-24T06:32:34.933Z,16.70
2018-05-24T06:35:02.480Z,16.80
2018-05-24T06:37:30.041Z,16.80
2018-05-24T06:39:57.721Z,16.90
2018-05-24T06:42:26.111Z,16.90
2018-05-24T06:44:53.638Z,16.90
2018-05-24T06:47:21.178Z,16.90
2018-05-24T06:49:50.200Z,17.00
2018-05-24T06:52:18.798Z,17.00
2018-05-24T06:54:46.331Z,17.00
2018-05-24T06:57:13.890Z,17.00
2018-05-24T06:59:41.432Z,17.10
2018-05-24T07:02:09.059Z,17.10
2018-05-24T07:04:36.595Z,17.10
2018-05-24T07:07:05.183Z,17.20
2018-05-24T07:09:32.863Z,17.10
2018-05-24T07:12:00.395Z,17.20
2018-05-24T07:14:27.939Z,17.20
2018-05-24T07:16:56.381Z,17.30
2018-05-24T07:19:23.971Z,17.30
2018-05-24T07:21:51.504Z,17.30
2018-05-24T07:24:19.192Z,17.40
2018-05-24T07:26:46.743Z,17.40
2018-05-24T07:29:14.450Z,17.40
2018-05-24T07:31:41.975Z,17.40
2018-05-24T07:34:10.298Z,17.50
2018-05-24T07:36:37.831Z,17.50
2018-05-24T07:39:05.485Z,17.60
2018-05-24T07:41:33.805Z,17.70
2018-05-24T07:44:01.357Z,17.70
2018-05-24T07:46:28.912Z,17.70
2018-05-24T07:48:56.459Z,17.80
2018-05-24T07:51:24.016Z,17.80
2018-05-24T07:53:51.543Z,17.80
2018-05-24T07:56:19.999Z,17.80
2018-05-24T07:58:47.565Z,17.80
2018-05-24T08:01:15.128Z,17.80
2018-05-24T08:03:42.684Z,17.80
2018-05-24T08:06:11.064Z,17.80
2018-05-24T08:08:40.142Z,17.80
2018-05-24T08:11:07.654Z,17.80
2018-05-24T08:13:35.195Z,17.80
2018-05-24T08:16:03.548Z,17.80
2018-05-24T08:18:31.216Z,17.80
2018-05-24T08:20:58.778Z,17.80
2018-05-24T08:23:27.277Z,17.80
2018-05-24T08:25:54.907Z,17.80
2018-05-24T08:28:22.475Z,17.80
2018-05-24T08:30:51.079Z,18.00
2018-05-24T08:33:18.635Z,18.00
2018-05-24T08:35:47.079Z,18.20
2018-05-24T08:38:14.652Z,18.20
2018-05-24T08:40:42.323Z,18.20
2018-05-24T08:43:10.558Z,18.30
2018-05-24T08:45:38.119Z,18.30
2018-05-24T08:48:05.667Z,18.30
2018-05-24T08:50:33.299Z,18.30
2018-05-24T08:53:00.894Z,18.20
2018-05-24T08:55:29.152Z,18.30
2018-05-24T08:57:56.702Z,18.30
2018-05-24T09:00:24.316Z,18.30
2018-05-24T09:02:51.870Z,18.40
2018-05-24T09:05:19.540Z,18.40
2018-05-24T09:07:47.095Z,18.50
2018-05-24T09:10:14.655Z,18.50
2018-05-24T09:12:42.186Z,18.60
2018-05-24T09:15:09.748Z,18.60
2018-05-24T09:17:37.383Z,18.60
2018-05-24T09:20:04.970Z,18.60
2018-05-24T09:22:33.366Z,18.80
2018-05-24T09:25:00.945Z,18.80
2018-05-24T09:27:29.479Z,19.10
2018-05-24T09:29:57.040Z,19.10
2018-05-24T09:32:24.616Z,19.20
2018-05-24T09:34:52.176Z,19.30
2018-05-24T09:37:19.736Z,19.50
2018-05-24T09:39:47.285Z,19.60
2018-05-24T09:42:14.887Z,19.80
2018-05-24T09:44:42.406Z,19.90
2018-05-24T09:47:09.957Z,20.00
2018-05-24T09:49:37.512Z,20.00
2018-05-24T09:52:05.029Z,20.10
2018-05-24T09:54:32.640Z,20.00
2018-05-24T09:57:00.193Z,20.10
2018-05-24T09:59:27.860Z,20.10
2018-05-24T10:01:55.532Z,20.00
2018-05-24T10:04:23.106Z,19.90
2018-05-24T10:06:50.644Z,19.80
2018-05-24T10:09:19.696Z,19.50
2018-05-24T10:11:47.231Z,19.60
2018-05-24T10:14:14.776Z,19.40
2018-05-24T10:16:42.411Z,19.40
2018-05-24T10:19:09.967Z,19.30
2018-05-24T10:21:37.696Z,19.20
2018-05-24T10:24:05.234Z,19.20
2018-05-24T10:26:32.911Z,19.20
2018-05-24T10:29:00.451Z,19.40
2018-05-24T10:31:28.045Z,19.50
2018-05-24T10:33:55.675Z,19.50
2018-05-24T10:36:23.227Z,19.50
2018-05-24T10:38:50.811Z,19.50
2018-05-24T10:41:18.366Z,19.40
2018-05-24T10:43:46.679Z,19.30
2018-05-24T10:46:14.227Z,19.30
2018-05-24T10:48:41.799Z,19.30
2018-05-24T10:51:09.399Z,19.30
2018-05-24T10:53:36.904Z,19.30
2018-05-24T10:56:04.482Z,19.30
2018-05-24T10:58:32.016Z,19.30
2018-05-24T11:00:59.659Z,19.30
2018-05-24T11:03:27.331Z,19.20
2018-05-24T11:05:54.757Z,19.20
2018-05-24T11:08:22.334Z,19.20
2018-05-24T11:10:49.943Z,19.10
2018-05-24T11:13:17.502Z,19.10
2018-05-24T11:15:45.902Z,19.00
2018-05-24T11:18:14.247Z,19.00
2018-05-24T11:20:41.815Z,19.00
2018-05-24T11:23:09.352Z,18.90
2018-05-24T11:25:36.909Z,18.90
2018-05-24T11:28:04.459Z,18.80
2018-05-24T11:30:31.998Z,18.80
2018-05-24T11:32:59.588Z,18.80
2018-05-24T11:35:27.207Z,18.60
2018-05-24T11:37:54.892Z,18.60
2018-05-24T11:40:22.459Z,18.60
2018-05-24T11:42:50.020Z,18.60
2018-05-24T11:45:17.623Z,18.50
2018-05-24T11:47:46.067Z,18.40
2018-05-24T11:50:13.631Z,18.40
2018-05-24T11:52:41.239Z,18.40
2018-05-24T11:55:08.877Z,18.40
2018-05-24T11:57:37.248Z,18.40
2018-05-24T12:00:04.954Z,18.40
2018-05-24T12:02:33.341Z,18.30
2018-05-24T12:05:00.920Z,18.30
2018-05-24T12:07:28.561Z,18.30
2018-05-24T12:09:56.124Z,18.30
2018-05-24T12:12:23.684Z,18.30
2018-05-24T12:14:51.245Z,18.30
2018-05-24T12:17:18.860Z,18.30
2018-05-24T12:19:47.138Z,18.20
2018-05-24T12:22:15.451Z,18.20
2018-05-24T12:24:42.992Z,18.20
2018-05-24T12:27:10.631Z,18.20
2018-05-24T12:29:38.180Z,18.30
2018-05-24T12:32:06.537Z,18.30
2018-05-24T12:34:34.163Z,18.30
2018-05-24T12:37:01.770Z,18.30
2018-05-24T12:39:29.487Z,18.30
2018-05-24T12:41:57.146Z,18.30
2018-05-24T12:44:24.659Z,18.40
2018-05-24T12:46:53.172Z,18.40
2018-05-24T12:49:20.840Z,18.40
2018-05-24T12:51:48.971Z,18.50
2018-05-24T12:54:17.274Z,18.60
2018-05-24T12:56:44.842Z,18.60
2018-05-24T12:59:12.358Z,18.60
2018-05-24T13:01:40.670Z,18.60
2018-05-24T13:04:08.271Z,18.60
2018-05-24T13:06:35.806Z,18.60
2018-05-24T13:09:04.316Z,18.60
2018-05-24T13:11:31.888Z,18.60
2018-05-24T13:13:59.443Z,18.60
2018-05-24T13:16:27.133Z,18.60
2018-05-24T13:18:54.717Z,18.60
2018-05-24T13:21:22.312Z,18.60
2018-05-24T13:23:49.856Z,18.60
2018-05-24T13:26:17.385Z,18.60
2018-05-24T13:28:44.947Z,18.50
2018-05-24T13:31:12.491Z,18.50
2018-05-24T13:33:40.052Z,18.50
2018-05-24T13:36:07.594Z,18.60
2018-05-24T13:38:35.891Z,18.60
2018-05-24T13:41:03.441Z,18.60
2018-05-24T13:43:30.958Z,18.60
2018-05-24T13:45:58.485Z,18.60
2018-05-24T13:48:26.041Z,18.60
2018-05-24T13:50:53.592Z,18.60
2018-05-24T13:53:21.113Z,18.60
2018-05-24T13:55:49.580Z,18.60
2018-05-24T13:58:17.160Z,18.50
2018-05-24T14:00:45.720Z,18.50
2018-05-24T14:03:13.281Z,18.50
2018-05-24T14:05:40.906Z,18.50
2018-05-24T14:08:09.396Z,18.50
2018-05-24T14:10:36.967Z,18.50
2018-05-24T14:13:06.048Z,18.50
2018-05-24T14:15:33.603Z,18.50
2018-05-24T14:18:01.163Z,18.50
2018-05-24T14:20:29.479Z,18.50
2018-05-24T14:22:57.804Z,18.50
2018-05-24T14:25:25.515Z,18.50
2018-05-24T14:27:53.866Z,18.50
2018-05-24T14:30:21.437Z,18.50
2018-05-24T14:32:49.010Z,18.50
2018-05-24T14:35:17.367Z,18.50
2018-05-24T14:37:44.928Z,18.50
2018-05-24T14:40:12.516Z,18.60
2018-05-24T14:42:40.926Z,18.60
2018-05-24T14:45:08.523Z,18.60
2018-05-24T14:47:36.084Z,18.60
2018-05-24T14:50:04.431Z,18.60
2018-05-24T14:52:32.004Z,18.60
2018-05-24T14:54:59.548Z,18.60
2018-05-24T14:57:27.160Z,18.60
2018-05-24T14:59:54.899Z,18.60
2018-05-24T15:02:23.402Z,18.60
2018-05-24T15:04:50.988Z,18.60
2018-05-24T15:07:18.566Z,18.70
2018-05-24T15:09:46.136Z,18.70
2018-05-24T15:12:13.707Z,18.70
2018-05-24T15:14:41.275Z,18.80
2018-05-24T15:17:08.900Z,18.80
2018-05-24T15:19:36.497Z,18.80
2018-05-24T15:22:04.168Z,18.80
2018-05-24T15:24:31.755Z,18.80
2018-05-24T15:27:00.150Z,18.80
2018-05-24T15:29:27.824Z,18.80
2018-05-24T15:31:55.382Z,18.80
2018-05-24T15:34:22.930Z,18.80
2018-05-24T15:36:50.621Z,18.80
2018-05-24T15:39:18.173Z,18.80
2018-05-24T15:41:45.745Z,18.90
2018-05-24T15:44:13.278Z,18.90
2018-05-24T15:46:40.883Z,18.90
2018-05-24T15:49:09.409Z,18.90
2018-05-24T15:51:37.087Z,18.90
2018-05-24T15:54:04.743Z,18.90
2018-05-24T15:56:32.316Z,18.90
2018-05-24T15:58:59.889Z,18.90
2018-05-24T16:01:27.515Z,18.90
2018-05-24T16:03:55.127Z,18.90
2018-05-24T16:06:23.514Z,18.90
2018-05-24T16:08:51.845Z,18.90
2018-05-24T16:11:19.455Z,18.90
2018-05-24T16:13:47.799Z,18.90
2018-05-24T16:16:15.347Z,18.80
2018-05-24T16:18:42.894Z,18.90
2018-05-24T16:21:10.468Z,18.80
2018-05-24T16:23:38.027Z,18.80
2018-05-24T16:26:05.588Z,18.80
2018-05-24T16:28:33.188Z,18.80
2018-05-24T16:31:01.499Z,18.80
2018-05-24T16:33:29.066Z,18.80
2018-05-24T16:35:57.495Z,18.80
2018-05-24T16:38:25.886Z,18.80
2018-05-24T16:40:53.439Z,18.80
2018-05-24T16:43:21.781Z,18.80
2018-05-24T16:45:49.374Z,18.80
2018-05-24T16:48:17.703Z,18.80
2018-05-24T16:50:45.352Z,18.80
2018-05-24T16:53:12.927Z,18.80
2018-05-24T16:55:40.484Z,18.80
2018-05-24T16:58:08.091Z,18.80
2018-05-24T17:00:36.501Z,18.80
2018-05-24T17:03:04.887Z,18.80
2018-05-24T17:05:32.484Z,18.70
2018-05-24T17:08:00.107Z,18.80
2018-05-24T17:10:27.694Z,18.70
2018-05-24T17:12:55.371Z,18.70
2018-05-24T17:15:23.008Z,18.70
2018-05-24T17:17:50.583Z,18.80
2018-05-24T17:20:18.327Z,18.80
2018-05-24T17:22:45.953Z,18.80
2018-05-24T17:25:13.509Z,18.80
2018-05-24T17:27:41.084Z,18.70
2018-05-24T17:30:08.707Z,18.70
2018-05-24T17:32:37.131Z,18.70
2018-05-24T17:35:04.721Z,18.70
2018-05-24T17:37:32.388Z,18.60
2018-05-24T17:39:59.953Z,18.60
2018-05-24T17:42:28.291Z,18.60
2018-05-24T17:44:55.874Z,18.60
2018-05-24T17:47:23.580Z,18.60
2018-05-24T17:49:51.147Z,18.60
2018-05-24T17:52:18.938Z,18.60
2018-05-24T17:54:46.535Z,18.60
2018-05-24T17:57:15.050Z,18.60
2018-05-24T17:59:43.472Z,18.50
2018-05-24T18:02:11.140Z,18.60
2018-05-24T18:04:38.781Z,18.50
2018-05-24T18:07:06.467Z,18.50
2018-05-24T18:09:34.114Z,18.50
2018-05-24T18:12:01.658Z,18.50
2018-05-24T18:14:29.339Z,18.50
2018-05-24T18:16:56.898Z,18.50
2018-05-24T18:19:24.494Z,18.50
2018-05-24T18:21:52.825Z,18.50
2018-05-24T18:24:20.549Z,18.50
2018-05-24T18:26:48.251Z,18.50
2018-05-24T18:29:15.812Z,18.50
2018-05-24T18:31:43.402Z,18.50
2018-05-24T18:34:11.711Z,18.40
2018-05-24T18:36:39.316Z,18.40
2018-05-24T18:39:06.890Z,18.40
2018-05-24T18:41:34.482Z,18.50
2018-05-24T18:44:02.083Z,18.40
2018-05-24T18:46:29.693Z,18.40
2018-05-24T18:48:57.242Z,18.40
2018-05-24T18:51:25.755Z,18.40
2018-05-24T18:53:53.366Z,18.40
2018-05-24T18:56:20.939Z,18.40
2018-05-24T18:58:49.269Z,18.40
2018-05-24T19:01:16.939Z,18.40
2018-05-24T19:03:44.535Z,18.40
2018-05-24T19:06:12.930Z,18.40
2018-05-24T19:08:40.613Z,18.40
2018-05-24T19:11:08.184Z,18.40
2018-05-24T19:13:35.765Z,18.40
2018-05-24T19:16:04.277Z,18.30
2018-05-24T19:18:32.671Z,18.30
2018-05-24T19:21:00.215Z,18.30
2018-05-24T19:23:28.548Z,18.30
2018-05-24T19:25:56.138Z,18.30
2018-05-24T19:28:24.643Z,18.20
2018-05-24T19:30:52.245Z,18.20
2018-05-24T19:33:19.828Z,18.20
2018-05-24T19:35:47.383Z,18.20
2018-05-24T19:38:14.966Z,18.10
2018-05-24T19:40:42.763Z,18.10
2018-05-24T19:43:10.379Z,18.10
2018-05-24T19:45:38.321Z,18.20
2018-05-24T19:48:05.922Z,18.10
2018-05-24T19:50:34.486Z,18.10
2018-05-24T19:53:02.043Z,18.10
2018-05-24T19:55:29.712Z,18.10
2018-05-24T19:57:58.116Z,18.10
2018-05-24T20:00:25.685Z,18.00
2018-05-24T20:02:53.247Z,18.00
2018-05-24T20:05:20.793Z,18.00
2018-05-24T20:07:48.395Z,18.00
2018-05-24T20:10:15.947Z,18.00
2018-05-24T20:12:43.548Z,18.00
2018-05-24T20:15:11.867Z,18.00
2018-05-24T20:17:39.435Z,18.00
2018-05-24T20:20:07.049Z,17.90
2018-05-24T20:22:34.593Z,17.90
2018-05-24T20:25:02.162Z,17.90
2018-05-24T20:27:30.617Z,17.80
2018-05-24T20:29:58.277Z,17.80
2018-05-24T20:32:25.820Z,17.80
2018-05-24T20:34:53.404Z,17.80
2018-05-24T20:37:21.132Z,17.70
2018-05-24T20:39:48.749Z,17.70
2018-05-24T20:42:17.050Z,17.70
2018-05-24T20:44:44.689Z,17.70
2018-05-24T20:47:12.265Z,17.70
2018-05-24T20:49:39.853Z,17.70
2018-05-24T20:52:07.482Z,17.70
2018-05-24T20:54:35.164Z,17.70
2018-05-24T20:57:02.859Z,17.70
2018-05-24T20:59:30.440Z,17.70
2018-05-24T21:01:58.756Z,17.70
2018-05-24T21:04:26.400Z,17.70
2018-05-24T21:06:54.092Z,17.70
2018-05-24T21:09:21.737Z,17.70
2018-05-24T21:11:49.301Z,17.70
2018-05-24T21:14:17.643Z,17.70
2018-05-24T21:16:45.293Z,17.60
2018-05-24T21:19:13.616Z,17.60
2018-05-24T21:21:41.193Z,17.60
2018-05-24T21:24:08.776Z,17.60
2018-05-24T21:26:36.339Z,17.50
2018-05-24T21:29:04.679Z,17.50
2018-05-24T21:31:32.256Z,17.50
2018-05-24T21:33:59.815Z,17.40
2018-05-24T21:36:27.343Z,17.40
2018-05-24T21:38:54.887Z,17.40
2018-05-24T21:41:22.607Z,17.40
2018-05-24T21:43:50.181Z,17.40
2018-05-24T21:46:18.559Z,17.40
2018-05-24T21:48:47.098Z,17.40
2018-05-24T21:51:14.664Z,17.40
2018-05-24T21:53:42.252Z,17.40
2018-05-24T21:56:10.600Z,17.40
2018-05-24T21:58:38.251Z,17.40
2018-05-24T22:01:05.934Z,17.50
2018-05-24T22:03:33.588Z,17.50
2018-05-24T22:06:01.135Z,17.40
2018-05-24T22:08:28.680Z,17.40
2018-05-24T22:10:56.295Z,17.40
2018-05-24T22:13:23.816Z,17.40
2018-05-24T22:15:51.410Z,17.40
2018-05-24T22:18:19.718Z,17.40
2018-05-24T22:20:47.292Z,17.40
2018-05-24T22:23:14.839Z,17.50
2018-05-24T22:25:42.418Z,17.40
2018-05-24T22:28:09.984Z,17.50
2018-05-24T22:30:37.555Z,17.40
2018-05-24T22:33:05.111Z,17.40
2018-05-24T22:35:32.783Z,17.40
2018-05-24T22:38:00.387Z,17.30
2018-05-24T22:40:27.981Z,17.30
2018-05-24T22:42:55.523Z,17.30
2018-05-24T22:45:23.139Z,17.30
2018-05-24T22:47:51.455Z,17.30
2018-05-24T22:50:19.016Z,17.30
2018-05-24T22:52:46.599Z,17.30
2018-05-24T22:55:14.136Z,17.30
2018-05-24T22:57:41.700Z,17.30
2018-05-24T23:00:09.271Z,17.30
2018-05-24T23:02:36.843Z,17.30
2018-05-24T23:05:04.471Z,17.20
2018-05-24T23:07:32.016Z,17.20
2018-05-24T23:10:00.356Z,17.20
2018-05-24T23:12:28.707Z,17.20
2018-05-24T23:14:56.260Z,17.20
2018-05-24T23:17:23.828Z,17.20
2018-05-24T23:19:51.402Z,17.20
2018-05-24T23:22:31.108Z,17.20
2018-05-24T23:24:58.695Z,17.30
2018-05-24T23:27:26.302Z,17.20
2018-05-24T23:29:53.849Z,17.20
2018-05-24T23:32:22.171Z,17.20
2018-05-24T23:34:49.736Z,17.20
2018-05-24T23:37:17.570Z,17.20
2018-05-24T23:39:45.335Z,17.20
2018-05-24T23:42:12.866Z,17.20
2018-05-24T23:44:40.435Z,17.20
2018-05-24T23:47:07.975Z,17.20
2018-05-24T23:49:36.367Z,17.20
2018-05-24T23:52:04.667Z,17.20
2018-05-24T23:54:32.300Z,17.20
2018-05-24T23:56:59.871Z,17.20
2018-05-24T23:59:27.479Z,17.20
